Time;durP1;ratioP1;P1;durP2;ratioP2;P2;SDS_P1;SDS_P2;PMS_P1;PMS_P2;Temp;Humidity;BMP_temperature;BMP_pressure;BME280_temperature;BME280_humidity;BME280_pressure;Samples;Min_cycle;Max_cycle;Signal;HPM_P1;HPM_P2
2021/08/12 00:00:33;;;;;;;12.73;8.63;;;16.40;99.90;;;;;;4152413;28;20223;-79
2021/08/12 00:02:35;;;;;;;10.83;8.13;;;16.40;99.90;;;;;;4152901;28;20222;-79
2021/08/12 00:04:37;;;;;;;14.20;8.60;;;16.40;99.90;;;;;;4148176;28;20738;-79
2021/08/12 00:06:40;;;;;;;12.43;8.13;;;16.30;99.90;;;;;;4152729;28;20235;-78
2021/08/12 00:08:42;;;;;;;13.10;8.50;;;16.40;99.90;;;;;;4151860;28;20219;-78
2021/08/12 00:10:50;;;;;;;12.03;8.40;;;16.30;99.90;;;;;;4152806;28;20682;-78
2021/08/12 00:12:51;;;;;;;12.10;8.43;;;16.30;99.90;;;;;;4142006;28;20206;-79
2021/08/12 00:14:53;;;;;;;15.17;8.20;;;16.30;99.90;;;;;;4145793;28;20243;-78
2021/08/12 00:16:55;;;;;;;12.57;8.17;;;16.30;99.90;;;;;;4142202;28;20208;-78
2021/08/12 00:18:57;;;;;;;11.27;7.67;;;16.30;99.90;;;;;;4151284;28;20211;-79
2021/08/12 00:20:59;;;;;;;11.93;8.00;;;16.20;99.90;;;;;;4153009;28;20211;-79
2021/08/12 00:23:02;;;;;;;11.93;8.07;;;16.20;99.90;;;;;;4152678;28;20566;-78
2021/08/12 00:25:04;;;;;;;11.43;7.60;;;16.20;99.90;;;;;;4147231;28;20265;-79
2021/08/12 00:27:06;;;;;;;13.63;8.67;;;16.20;99.90;;;;;;4146173;28;20270;-79
2021/08/12 00:29:08;;;;;;;13.20;7.93;;;16.10;99.90;;;;;;4151894;28;20260;-79
2021/08/12 00:31:09;;;;;;;11.33;7.97;;;16.10;99.90;;;;;;4150796;28;20602;-78
2021/08/12 00:33:11;;;;;;;11.10;7.40;;;16.10;99.90;;;;;;4151853;28;20287;-78
2021/08/12 00:35:13;;;;;;;12.37;7.63;;;16.10;99.90;;;;;;4150215;28;20210;-79
2021/08/12 00:37:15;;;;;;;13.43;7.77;;;16.00;99.90;;;;;;4152128;28;20210;-79
2021/08/12 00:39:18;;;;;;;10.40;6.87;;;16.10;99.90;;;;;;4150833;28;20686;-78
2021/08/12 00:41:20;;;;;;;11.10;7.60;;;16.00;99.90;;;;;;4152443;28;20218;-79
2021/08/12 00:43:22;;;;;;;11.10;7.03;;;16.00;99.90;;;;;;4148163;28;20222;-78
2021/08/12 00:45:23;;;;;;;14.93;7.97;;;16.00;99.90;;;;;;4135852;28;20273;-79
2021/08/12 00:47:25;;;;;;;13.17;7.67;;;16.00;99.90;;;;;;4146107;28;20647;-79
2021/08/12 00:49:27;;;;;;;12.83;7.53;;;16.00;99.90;;;;;;4151275;28;20208;-78
2021/08/12 00:51:30;;;;;;;10.97;7.70;;;15.90;99.90;;;;;;4147956;28;20218;-79
2021/08/12 00:53:33;;;;;;;10.73;7.70;;;15.90;99.90;;;;;;4151141;28;20525;-79
2021/08/12 00:55:36;;;;;;;9.90;7.07;;;15.90;99.90;;;;;;4142760;28;20234;-79
2021/08/12 00:57:38;;;;;;;10.70;7.40;;;15.90;99.90;;;;;;4150851;28;20222;-79
2021/08/12 00:59:41;;;;;;;10.40;7.37;;;15.80;99.90;;;;;;4151120;28;20218;-79
2021/08/12 01:01:45;;;;;;;9.83;7.07;;;15.80;99.90;;;;;;4151123;28;20310;-79
2021/08/12 01:03:46;;;;;;;10.50;7.67;;;15.80;99.90;;;;;;4140558;28;20712;-79
2021/08/12 01:05:51;;;;;;;11.10;7.70;;;15.80;99.90;;;;;;4150193;28;20576;-78
2021/08/12 01:08:00;;;;;;;12.43;7.37;;;15.70;99.90;;;;;;4148738;28;20237;-79
2021/08/12 01:10:08;;;;;;;11.63;7.43;;;15.70;99.90;;;;;;4150239;28;20209;-79
2021/08/12 01:12:18;;;;;;;9.77;7.40;;;15.70;99.90;;;;;;4149537;28;20210;-79
2021/08/12 01:14:26;;;;;;;13.17;7.17;;;15.60;99.90;;;;;;4147220;28;20320;-79
2021/08/12 01:16:35;;;;;;;11.63;7.30;;;15.60;99.90;;;;;;4146958;28;20209;-79
2021/08/12 01:18:42;;;;;;;9.40;7.07;;;15.70;99.90;;;;;;4150594;28;20206;-78
2021/08/12 01:21:10;;;;;;;9.90;7.17;;;15.60;99.90;;;;;;4149812;28;20219;-79
2021/08/12 01:23:14;;;;;;;14.00;7.80;;;15.60;99.90;;;;;;4151926;28;20594;-79
2021/08/12 01:25:21;;;;;;;10.20;7.00;;;15.60;99.90;;;;;;4140761;28;20209;-78
2021/08/12 01:27:28;;;;;;;9.93;7.07;;;15.50;99.90;;;;;;4151528;28;20300;-78
2021/08/12 01:29:40;;;;;;;10.77;7.50;;;15.60;99.90;;;;;;4150858;28;20659;-79
2021/08/12 01:31:50;;;;;;;12.73;7.53;;;15.50;99.90;;;;;;4150929;28;20256;-79
2021/08/12 01:34:03;;;;;;;11.27;7.67;;;15.50;99.90;;;;;;4145655;28;20252;-78
2021/08/12 01:36:08;;;;;;;12.43;7.63;;;15.50;99.90;;;;;;4151020;28;20225;-78
2021/08/12 01:38:13;;;;;;;10.53;7.33;;;15.40;99.90;;;;;;4156194;28;20233;-79
2021/08/12 01:40:17;;;;;;;10.73;7.27;;;15.40;99.90;;;;;;4137314;28;20619;-78
2021/08/12 01:42:20;;;;;;;11.60;7.10;;;15.40;99.90;;;;;;4138715;28;20575;-78
2021/08/12 01:44:23;;;;;;;11.27;7.27;;;15.40;99.90;;;;;;4145134;28;20229;-77
2021/08/12 01:46:27;;;;;;;9.77;7.10;;;15.40;99.90;;;;;;4154500;28;20217;-79
2021/08/12 01:48:30;;;;;;;12.53;7.50;;;15.30;99.90;;;;;;4146972;28;20614;-78
2021/08/12 01:50:32;;;;;;;13.53;7.20;;;15.30;99.90;;;;;;4147088;28;20582;-78
2021/08/12 01:52:36;;;;;;;9.40;6.97;;;15.30;99.90;;;;;;4131993;28;20219;-77
2021/08/12 01:54:41;;;;;;;13.27;7.07;;;15.30;99.90;;;;;;4141783;28;20283;-79
2021/08/12 01:56:45;;;;;;;11.63;6.63;;;15.20;99.90;;;;;;4143305;28;20209;-79
2021/08/12 01:58:48;;;;;;;9.90;6.60;;;15.30;99.90;;;;;;4146481;28;20216;-79
2021/08/12 02:00:52;;;;;;;10.10;6.80;;;15.20;99.90;;;;;;4146872;28;20218;-79
2021/08/12 02:02:54;;;;;;;12.83;6.87;;;15.20;99.90;;;;;;4144037;28;20578;-78
2021/08/12 02:04:56;;;;;;;12.60;7.37;;;15.20;99.90;;;;;;4147101;28;20239;-78
2021/08/12 02:07:00;;;;;;;10.77;6.67;;;15.20;99.90;;;;;;4147339;28;20232;-78
2021/08/12 02:09:04;;;;;;;10.93;6.70;;;15.10;99.90;;;;;;4144500;28;20227;-78
2021/08/12 02:11:05;;;;;;;12.00;7.13;;;15.10;99.90;;;;;;4147179;28;20261;-79
2021/08/12 02:13:09;;;;;;;11.57;6.73;;;15.10;99.90;;;;;;4136077;28;20640;-79
2021/08/12 02:15:12;;;;;;;11.13;7.00;;;15.10;99.90;;;;;;4134475;28;20204;-78
2021/08/12 02:17:14;;;;;;;10.80;7.13;;;15.10;99.90;;;;;;4139644;28;20209;-79
2021/08/12 02:19:16;;;;;;;10.20;6.83;;;15.00;99.90;;;;;;4146375;28;20212;-79
2021/08/12 02:21:23;;;;;;;10.90;6.50;;;15.10;99.90;;;;;;4148869;28;20212;-78
2021/08/12 02:23:30;;;;;;;11.23;7.10;;;15.00;99.90;;;;;;4145143;28;20208;-79
2021/08/12 02:25:35;;;;;;;10.40;7.10;;;15.00;99.90;;;;;;4134016;28;20667;-79
2021/08/12 02:27:38;;;;;;;11.10;7.17;;;15.00;99.90;;;;;;4140499;28;20231;-79
2021/08/12 02:29:41;;;;;;;11.23;6.73;;;14.90;99.90;;;;;;4150121;28;20216;-79
2021/08/12 02:31:45;;;;;;;11.37;7.47;;;14.90;99.90;;;;;;4150181;28;20212;-79
2021/08/12 02:33:49;;;;;;;12.37;6.77;;;14.90;99.90;;;;;;4140081;28;20615;-79
2021/08/12 02:35:53;;;;;;;9.50;6.80;;;14.90;99.90;;;;;;4135627;28;20209;-79
2021/08/12 02:37:58;;;;;;;10.97;6.90;;;14.90;99.90;;;;;;4141364;28;20212;-78
2021/08/12 02:40:01;;;;;;;10.67;6.60;;;14.90;99.90;;;;;;4147508;28;20292;-79
2021/08/12 02:42:06;;;;;;;11.83;6.63;;;14.80;99.90;;;;;;4142067;28;20213;-80
2021/08/12 02:44:07;;;;;;;10.53;6.73;;;14.80;99.90;;;;;;4150654;28;20243;-79
2021/08/12 02:46:10;;;;;;;9.47;6.50;;;14.80;99.90;;;;;;4150581;28;20215;-78
2021/08/12 02:48:13;;;;;;;10.83;7.47;;;14.80;99.90;;;;;;4149979;28;20228;-79
2021/08/12 02:50:15;;;;;;;9.93;6.90;;;14.70;99.90;;;;;;4151242;28;20216;-79
2021/08/12 02:52:18;;;;;;;13.87;7.33;;;14.70;99.90;;;;;;4150792;28;20221;-78
2021/08/12 02:54:21;;;;;;;12.90;7.03;;;14.70;99.90;;;;;;4150350;28;20228;-79
2021/08/12 02:56:25;;;;;;;11.00;6.70;;;14.70;99.90;;;;;;4151778;28;20264;-78
2021/08/12 02:58:31;;;;;;;10.60;6.90;;;14.70;99.90;;;;;;4151271;28;20206;-79
2021/08/12 03:00:33;;;;;;;14.27;7.50;;;14.70;99.90;;;;;;4148773;28;20208;-78
2021/08/12 03:02:37;;;;;;;10.17;7.10;;;14.60;99.90;;;;;;4145267;28;20217;-79
2021/08/12 03:04:39;;;;;;;13.00;7.20;;;14.60;99.90;;;;;;4143084;28;20231;-79
2021/08/12 03:06:42;;;;;;;10.50;7.27;;;14.60;99.90;;;;;;4151513;28;20629;-79
2021/08/12 03:08:45;;;;;;;9.87;6.43;;;14.60;99.90;;;;;;4151344;28;20277;-78
2021/08/12 03:10:47;;;;;;;11.90;7.60;;;14.60;99.90;;;;;;4145965;28;20296;-79
2021/08/12 03:12:50;;;;;;;11.03;7.10;;;14.50;99.90;;;;;;4151316;28;20204;-79
2021/08/12 03:14:54;;;;;;;10.80;7.37;;;14.50;99.90;;;;;;4145157;28;20797;-79
2021/08/12 03:16:57;;;;;;;11.37;7.13;;;14.50;99.90;;;;;;4138404;28;20294;-79
2021/08/12 03:18:58;;;;;;;14.73;7.30;;;14.50;99.90;;;;;;4148495;28;20623;-78
2021/08/12 03:21:06;;;;;;;11.23;6.97;;;14.40;99.90;;;;;;4152234;28;20678;-78
2021/08/12 03:23:08;;;;;;;12.47;7.13;;;14.40;99.90;;;;;;4151572;28;20242;-79
2021/08/12 03:25:11;;;;;;;11.60;7.33;;;14.40;99.90;;;;;;4142482;28;20258;-79
2021/08/12 03:27:15;;;;;;;12.40;7.57;;;14.40;99.90;;;;;;4152614;28;20235;-79
2021/08/12 03:29:17;;;;;;;14.53;7.77;;;14.40;99.90;;;;;;4145503;28;20318;-79
2021/08/12 03:31:20;;;;;;;12.03;7.23;;;14.40;99.90;;;;;;4149684;28;20211;-78
2021/08/12 03:33:22;;;;;;;13.90;7.13;;;14.40;99.90;;;;;;4148176;28;20243;-79
2021/08/12 03:35:23;;;;;;;10.87;6.90;;;14.30;99.90;;;;;;4133222;28;20216;-78
2021/08/12 03:37:25;;;;;;;12.73;6.77;;;14.30;99.90;;;;;;4138040;28;20208;-78
2021/08/12 03:39:27;;;;;;;10.63;7.43;;;14.30;99.90;;;;;;4141953;28;20205;-79
2021/08/12 03:41:28;;;;;;;11.53;7.03;;;14.30;99.90;;;;;;4132070;28;20212;-79
2021/08/12 03:43:30;;;;;;;13.43;7.17;;;14.30;99.90;;;;;;4131528;28;20737;-77
2021/08/12 03:45:32;;;;;;;11.13;7.30;;;14.20;99.90;;;;;;4140329;28;20216;-78
2021/08/12 03:47:35;;;;;;;11.03;7.27;;;14.20;99.90;;;;;;4148952;28;20238;-78
2021/08/12 03:49:36;;;;;;;11.93;7.23;;;14.20;99.90;;;;;;4143102;28;20263;-78
2021/08/12 03:51:38;;;;;;;10.07;6.90;;;14.20;99.90;;;;;;4144482;28;20575;-78
2021/08/12 03:53:40;;;;;;;12.10;7.77;;;14.20;99.90;;;;;;4148267;28;20235;-78
2021/08/12 03:55:41;;;;;;;12.23;7.53;;;14.20;99.90;;;;;;4140346;28;20667;-78
2021/08/12 03:57:43;;;;;;;11.30;6.90;;;14.20;99.90;;;;;;4148096;28;20200;-79
2021/08/12 03:59:45;;;;;;;12.30;7.20;;;14.10;99.90;;;;;;4140157;28;20727;-79
2021/08/12 04:01:47;;;;;;;10.50;7.30;;;14.10;99.90;;;;;;4149135;28;20216;-78
2021/08/12 04:03:50;;;;;;;11.40;7.20;;;14.10;99.90;;;;;;4135758;28;20267;-78
2021/08/12 04:05:52;;;;;;;11.23;7.30;;;14.10;99.90;;;;;;4141298;28;20273;-79
2021/08/12 04:07:53;;;;;;;12.07;7.53;;;14.10;99.90;;;;;;4144345;28;20228;-78
2021/08/12 04:09:55;;;;;;;12.30;7.77;;;14.10;99.90;;;;;;4147214;28;20893;-78
2021/08/12 04:11:57;;;;;;;12.93;7.60;;;14.10;99.90;;;;;;4147142;28;20208;-78
2021/08/12 04:13:58;;;;;;;12.57;7.47;;;14.00;99.90;;;;;;4147285;28;20593;-78
2021/08/12 04:16:00;;;;;;;9.80;7.10;;;14.00;99.90;;;;;;4142762;28;20274;-78
2021/08/12 04:18:02;;;;;;;14.00;7.30;;;14.00;99.90;;;;;;4147640;28;20654;-79
2021/08/12 04:20:06;;;;;;;10.63;7.03;;;14.00;99.90;;;;;;4148548;28;20853;-78
2021/08/12 04:22:08;;;;;;;12.07;7.13;;;14.00;99.90;;;;;;4131923;28;20215;-79
2021/08/12 04:24:09;;;;;;;12.70;7.70;;;14.00;99.90;;;;;;4132255;28;20228;-78
2021/08/12 04:26:11;;;;;;;10.80;6.67;;;14.00;99.90;;;;;;4137117;28;20208;-78
2021/08/12 04:28:13;;;;;;;12.83;8.07;;;14.00;99.90;;;;;;4147590;28;20235;-78
2021/08/12 04:30:15;;;;;;;11.70;7.33;;;14.00;99.90;;;;;;4146472;28;20258;-78
2021/08/12 04:32:17;;;;;;;10.10;7.13;;;14.00;99.90;;;;;;4137008;28;20721;-79
2021/08/12 04:34:18;;;;;;;10.53;7.17;;;14.00;99.90;;;;;;4148365;28;20234;-78
2021/08/12 04:36:21;;;;;;;10.60;6.90;;;14.00;99.90;;;;;;4148131;28;20219;-79
2021/08/12 04:38:24;;;;;;;13.53;7.07;;;14.00;99.90;;;;;;4146492;28;20204;-78
2021/08/12 04:40:26;;;;;;;11.67;7.67;;;14.00;99.90;;;;;;4143924;28;20223;-80
2021/08/12 04:42:28;;;;;;;11.77;7.73;;;14.00;99.90;;;;;;4147892;28;20217;-78
2021/08/12 04:44:29;;;;;;;13.47;7.97;;;14.00;99.90;;;;;;4147421;28;20270;-78
2021/08/12 04:46:31;;;;;;;12.63;7.50;;;14.00;99.90;;;;;;4148098;28;20207;-78
2021/08/12 04:48:33;;;;;;;13.57;7.90;;;14.00;99.90;;;;;;4140583;28;20654;-79
2021/08/12 04:50:37;;;;;;;11.70;7.53;;;14.00;99.90;;;;;;4145827;28;20212;-78
2021/08/12 04:52:40;;;;;;;11.93;7.17;;;14.00;99.90;;;;;;4147101;28;20285;-78
2021/08/12 04:54:42;;;;;;;10.77;7.37;;;14.00;99.90;;;;;;4143505;28;20232;-78
2021/08/12 04:56:44;;;;;;;11.67;7.50;;;14.00;99.90;;;;;;4147787;28;20223;-78
2021/08/12 04:58:45;;;;;;;11.27;7.40;;;14.00;99.90;;;;;;4146200;28;20225;-78
2021/08/12 05:00:47;;;;;;;12.40;6.90;;;14.00;99.90;;;;;;4147199;28;20578;-78
2021/08/12 05:02:49;;;;;;;10.83;7.40;;;14.00;99.90;;;;;;4147303;28;20254;-79
2021/08/12 05:04:51;;;;;;;12.90;7.90;;;14.10;99.90;;;;;;4143944;28;20231;-78
2021/08/12 05:06:52;;;;;;;12.97;7.03;;;14.10;99.90;;;;;;4147676;28;20208;-79
2021/08/12 05:08:55;;;;;;;12.17;7.03;;;14.10;99.90;;;;;;4144269;28;20239;-78
2021/08/12 05:10:57;;;;;;;12.40;7.70;;;14.00;99.90;;;;;;4145339;28;20258;-79
2021/08/12 05:12:59;;;;;;;11.33;7.43;;;14.10;99.90;;;;;;4147900;28;20211;-81
2021/08/12 05:15:02;;;;;;;11.37;7.40;;;14.10;99.90;;;;;;4144447;28;20757;-79
2021/08/12 05:17:04;;;;;;;10.87;7.20;;;14.10;99.90;;;;;;4144948;28;20258;-79
2021/08/12 05:19:06;;;;;;;12.83;7.60;;;14.10;99.90;;;;;;4145971;28;20614;-79
2021/08/12 05:21:08;;;;;;;10.53;7.30;;;14.10;99.90;;;;;;4146211;28;20224;-79
2021/08/12 05:23:11;;;;;;;11.63;7.67;;;14.10;99.90;;;;;;4144457;28;20678;-78
2021/08/12 05:25:14;;;;;;;11.47;6.80;;;14.10;99.90;;;;;;4146034;28;20215;-78
2021/08/12 05:27:16;;;;;;;13.97;7.77;;;14.20;99.90;;;;;;4144800;28;20212;-78
2021/08/12 05:29:18;;;;;;;12.00;7.40;;;14.20;99.90;;;;;;4144953;28;20228;-78
2021/08/12 05:31:20;;;;;;;12.17;7.80;;;14.20;99.90;;;;;;4144802;28;20263;-79
2021/08/12 05:33:22;;;;;;;12.67;8.17;;;14.20;99.90;;;;;;4141379;28;20211;-78
2021/08/12 05:35:24;;;;;;;12.97;8.43;;;14.30;99.90;;;;;;4142202;28;21137;-79
2021/08/12 05:37:25;;;;;;;12.97;7.97;;;14.30;99.90;;;;;;4141304;28;20270;-79
2021/08/12 05:39:27;;;;;;;14.90;8.57;;;14.30;99.90;;;;;;4140170;28;20212;-78
2021/08/12 05:41:30;;;;;;;13.13;8.83;;;14.30;99.90;;;;;;4143725;28;20682;-79
2021/08/12 05:43:32;;;;;;;12.90;8.37;;;14.30;99.90;;;;;;4142753;28;20231;-80
2021/08/12 05:45:34;;;;;;;16.97;8.40;;;14.40;99.90;;;;;;4139170;28;20271;-81
2021/08/12 05:47:35;;;;;;;11.57;7.70;;;14.40;99.90;;;;;;4141755;28;20212;-79
2021/08/12 05:49:37;;;;;;;13.07;7.60;;;14.40;99.90;;;;;;4141080;28;20706;-79
2021/08/12 05:51:39;;;;;;;12.97;7.83;;;14.40;99.90;;;;;;4143073;28;20679;-79
2021/08/12 05:53:41;;;;;;;11.90;7.80;;;14.40;99.90;;;;;;4140611;28;20240;-79
2021/08/12 05:55:43;;;;;;;11.43;7.47;;;14.40;99.90;;;;;;4141819;28;20208;-80
2021/08/12 05:57:46;;;;;;;11.17;7.27;;;14.50;99.90;;;;;;4142589;28;20216;-79
2021/08/12 05:59:47;;;;;;;12.03;7.27;;;14.50;99.90;;;;;;4134511;28;20740;-79
2021/08/12 06:01:49;;;;;;;11.57;7.83;;;14.50;99.90;;;;;;4142536;28;20318;-81
2021/08/12 06:03:51;;;;;;;13.13;7.53;;;14.60;99.90;;;;;;4142669;28;20235;-80
2021/08/12 06:05:56;;;;;;;13.17;8.30;;;14.60;99.90;;;;;;4134883;28;20208;-80
2021/08/12 06:07:58;;;;;;;13.80;7.80;;;14.60;99.90;;;;;;4141488;28;20304;-81
2021/08/12 06:10:00;;;;;;;11.30;7.30;;;14.60;99.90;;;;;;4139717;28;20212;-79
2021/08/12 06:12:02;;;;;;;14.23;8.27;;;14.70;99.90;;;;;;4143547;28;20219;-79
2021/08/12 06:14:05;;;;;;;13.97;7.60;;;14.70;99.90;;;;;;4142603;28;20240;-79
2021/08/12 06:16:08;;;;;;;12.23;7.97;;;14.70;99.90;;;;;;4146207;28;20199;-80
2021/08/12 06:18:11;;;;;;;12.57;7.90;;;14.80;99.90;;;;;;4145375;28;20245;-81
2021/08/12 06:20:13;;;;;;;11.17;7.60;;;14.80;99.90;;;;;;4150141;28;20662;-81
2021/08/12 06:22:15;;;;;;;12.83;7.47;;;14.90;99.90;;;;;;4151181;28;20208;-80
2021/08/12 06:24:17;;;;;;;12.77;7.87;;;14.90;99.90;;;;;;4149304;28;20232;-80
2021/08/12 06:26:18;;;;;;;12.27;7.77;;;15.00;99.90;;;;;;4144982;28;20267;-80
2021/08/12 06:28:20;;;;;;;13.50;8.03;;;15.00;99.90;;;;;;4142578;28;20206;-80
2021/08/12 06:30:23;;;;;;;11.33;7.83;;;15.10;99.90;;;;;;4141817;28;20283;-80
2021/08/12 06:32:27;;;;;;;11.67;7.97;;;15.10;99.90;;;;;;4138851;28;20736;-80
2021/08/12 06:34:29;;;;;;;12.10;7.47;;;15.20;99.90;;;;;;4142294;28;20232;-80
2021/08/12 06:36:32;;;;;;;12.60;7.97;;;15.20;99.90;;;;;;4143376;28;20682;-80
2021/08/12 06:38:33;;;;;;;12.33;8.00;;;15.20;99.90;;;;;;4143628;28;20626;-80
2021/08/12 06:40:35;;;;;;;11.73;7.60;;;15.30;99.90;;;;;;4138375;28;20213;-80
2021/08/12 06:42:37;;;;;;;10.80;7.27;;;15.30;99.90;;;;;;4142563;28;20271;-80
2021/08/12 06:44:39;;;;;;;10.10;6.83;;;15.30;99.90;;;;;;4141717;28;20234;-80
2021/08/12 06:46:42;;;;;;;11.27;7.07;;;15.30;99.90;;;;;;4142282;28;20472;-80
2021/08/12 06:48:43;;;;;;;9.67;6.80;;;15.30;99.90;;;;;;4142223;28;20881;-81
2021/08/12 06:50:45;;;;;;;10.40;6.87;;;15.40;99.90;;;;;;4141910;28;20275;-80
2021/08/12 06:52:47;;;;;;;11.07;7.50;;;15.40;99.90;;;;;;4143419;28;20673;-80
2021/08/12 06:54:49;;;;;;;10.97;7.40;;;15.50;99.90;;;;;;4142067;28;20237;-80
2021/08/12 06:56:50;;;;;;;11.47;7.23;;;15.50;99.90;;;;;;4138795;28;20219;-81
2021/08/12 06:58:52;;;;;;;10.93;6.93;;;15.50;99.90;;;;;;4141875;28;20677;-81
2021/08/12 07:00:54;;;;;;;9.47;6.17;;;15.60;99.90;;;;;;4141999;28;20214;-80
2021/08/12 07:02:57;;;;;;;9.30;6.57;;;15.60;99.90;;;;;;4142381;28;20679;-81
2021/08/12 07:04:59;;;;;;;8.73;6.27;;;15.70;99.90;;;;;;4139078;28;20352;-80
2021/08/12 07:07:00;;;;;;;10.33;6.83;;;15.70;99.90;;;;;;4129214;28;20242;-80
2021/08/12 07:09:02;;;;;;;8.67;6.10;;;15.70;99.90;;;;;;4129952;28;20278;-80
2021/08/12 07:11:04;;;;;;;8.53;6.30;;;15.80;99.90;;;;;;4133677;28;20359;-80
2021/08/12 07:13:05;;;;;;;9.33;6.37;;;15.80;99.90;;;;;;4144983;28;20219;-80
2021/08/12 07:15:08;;;;;;;10.57;6.43;;;15.90;99.90;;;;;;4139647;28;20247;-80
2021/08/12 07:17:10;;;;;;;10.07;6.70;;;15.90;99.90;;;;;;4132361;28;20669;-80
2021/08/12 07:19:13;;;;;;;8.83;5.93;;;16.00;99.90;;;;;;4142603;28;20759;-80
2021/08/12 07:21:16;;;;;;;10.73;6.50;;;16.00;99.90;;;;;;4145683;28;20321;-80
2021/08/12 07:23:17;;;;;;;10.23;6.10;;;16.10;99.90;;;;;;4141680;28;20697;-80
2021/08/12 07:25:21;;;;;;;8.97;6.10;;;16.20;99.90;;;;;;4146090;28;20273;-80
2021/08/12 07:27:23;;;;;;;10.50;6.80;;;16.20;99.90;;;;;;4146162;28;20353;-80
2021/08/12 07:29:25;;;;;;;7.83;5.67;;;16.30;99.90;;;;;;4145911;28;20235;-80
2021/08/12 07:31:26;;;;;;;8.50;6.07;;;16.30;99.90;;;;;;4145748;28;20208;-80
2021/08/12 07:33:28;;;;;;;8.00;5.67;;;16.40;99.90;;;;;;4143739;28;20235;-80
2021/08/12 07:35:32;;;;;;;9.73;6.37;;;16.40;99.90;;;;;;4144844;28;20369;-80
2021/08/12 07:37:34;;;;;;;10.33;6.00;;;16.50;99.90;;;;;;4145060;28;20536;-80
2021/08/12 07:39:35;;;;;;;8.30;5.70;;;16.60;99.90;;;;;;4144219;28;20207;-80
2021/08/12 07:41:37;;;;;;;10.40;5.60;;;16.70;99.90;;;;;;4144063;28;20405;-80
2021/08/12 07:43:40;;;;;;;7.77;5.70;;;16.70;99.90;;;;;;4145477;28;20235;-80
2021/08/12 07:45:41;;;;;;;7.83;5.13;;;16.80;99.90;;;;;;4146005;28;20215;-80
2021/08/12 07:47:43;;;;;;;7.73;5.33;;;16.90;99.90;;;;;;4145151;28;20211;-81
2021/08/12 07:49:45;;;;;;;8.40;5.30;;;17.00;99.90;;;;;;4138615;28;20228;-80
2021/08/12 07:51:48;;;;;;;7.63;5.50;;;17.10;99.90;;;;;;4144381;28;20242;-80
2021/08/12 07:53:50;;;;;;;7.97;5.60;;;17.30;99.90;;;;;;4145638;28;20417;-80
2021/08/12 07:55:52;;;;;;;7.90;5.47;;;17.40;99.90;;;;;;4140563;28;20204;-79
2021/08/12 07:57:53;;;;;;;8.37;5.70;;;17.60;99.90;;;;;;4145735;28;20216;-80
2021/08/12 07:59:55;;;;;;;6.80;5.10;;;17.60;99.90;;;;;;4145673;28;20209;-80
2021/08/12 08:01:57;;;;;;;7.47;5.53;;;17.70;99.90;;;;;;4144922;28;20679;-80
2021/08/12 08:03:59;;;;;;;8.97;5.87;;;17.80;99.90;;;;;;4144740;28;20342;-80
2021/08/12 08:06:01;;;;;;;7.77;5.10;;;17.90;99.90;;;;;;4138254;28;20222;-77
2021/08/12 08:08:05;;;;;;;8.63;5.33;;;18.00;99.90;;;;;;4139927;28;20212;-76
2021/08/12 08:10:08;;;;;;;6.60;4.80;;;18.10;99.90;;;;;;4144402;28;20239;-76
2021/08/12 08:12:10;;;;;;;6.57;4.80;;;18.10;99.90;;;;;;4142479;28;20212;-75
2021/08/12 08:14:11;;;;;;;9.47;4.93;;;18.20;99.90;;;;;;4141346;28;20238;-75
2021/08/12 08:16:14;;;;;;;9.67;5.17;;;18.20;99.90;;;;;;4143936;28;20206;-78
2021/08/12 08:18:15;;;;;;;6.27;4.90;;;18.30;99.90;;;;;;4143217;28;20626;-75
2021/08/12 08:20:17;;;;;;;6.63;5.40;;;18.40;99.90;;;;;;4144405;28;20252;-76
2021/08/12 08:22:19;;;;;;;7.40;5.10;;;18.50;99.90;;;;;;4137104;28;20210;-76
2021/08/12 08:24:22;;;;;;;6.40;4.60;;;18.50;99.90;;;;;;4138503;28;20230;-76
2021/08/12 08:26:23;;;;;;;7.10;4.63;;;18.60;99.90;;;;;;4144367;28;20212;-76
2021/08/12 08:28:25;;;;;;;7.17;4.83;;;18.70;99.90;;;;;;4143790;28;20267;-77
2021/08/12 08:30:28;;;;;;;6.00;4.63;;;18.80;99.90;;;;;;4139386;28;20240;-76
2021/08/12 08:32:31;;;;;;;7.63;5.00;;;18.90;99.90;;;;;;4134103;28;20218;-76
2021/08/12 08:34:33;;;;;;;6.27;4.23;;;19.00;99.90;;;;;;4144210;28;20765;-76
2021/08/12 08:36:35;;;;;;;5.43;4.53;;;19.10;99.90;;;;;;4143814;28;20853;-76
2021/08/12 08:38:36;;;;;;;6.37;4.77;;;19.20;99.90;;;;;;4143786;28;20219;-76
2021/08/12 08:40:40;;;;;;;7.07;5.23;;;19.40;99.90;;;;;;4144345;28;20220;-76
2021/08/12 08:42:45;;;;;;;6.27;4.40;;;19.40;99.90;;;;;;4142495;28;20229;-76
2021/08/12 08:44:50;;;;;;;6.47;5.27;;;19.50;99.90;;;;;;4143082;28;20230;-77
2021/08/12 08:46:52;;;;;;;6.57;4.43;;;19.60;99.90;;;;;;4137998;28;20251;-76
2021/08/12 08:48:56;;;;;;;6.87;4.50;;;19.80;99.90;;;;;;4143911;28;20218;-76
2021/08/12 08:50:59;;;;;;;6.47;4.67;;;19.80;99.90;;;;;;4144486;28;20608;-77
2021/08/12 08:53:01;;;;;;;5.73;4.30;;;19.90;99.90;;;;;;4143132;28;20326;-76
2021/08/12 08:55:03;;;;;;;5.77;4.47;;;20.00;99.90;;;;;;4137755;28;20607;-76
2021/08/12 08:57:08;;;;;;;6.70;4.70;;;20.20;99.90;;;;;;4142742;28;20235;-76
2021/08/12 08:59:10;;;;;;;5.13;4.40;;;20.30;99.90;;;;;;4143213;28;20621;-76
2021/08/12 09:01:12;;;;;;;6.27;4.60;;;20.40;99.90;;;;;;4143919;28;21013;-77
2021/08/12 09:03:13;;;;;;;5.27;4.00;;;20.50;99.90;;;;;;4142791;28;20218;-76
2021/08/12 09:05:16;;;;;;;4.90;4.30;;;20.60;99.90;;;;;;4142453;28;20226;-76
2021/08/12 09:07:19;;;;;;;5.73;4.40;;;20.70;99.90;;;;;;4142657;28;20298;-76
2021/08/12 09:09:21;;;;;;;7.13;4.70;;;20.80;99.90;;;;;;4143398;28;20687;-76
2021/08/12 09:11:22;;;;;;;7.10;4.43;;;20.90;99.90;;;;;;4140460;28;20922;-76
2021/08/12 09:13:28;;;;;;;5.73;4.00;;;21.00;99.70;;;;;;4141660;28;20239;-77
2021/08/12 09:15:39;;;;;;;6.20;4.97;;;21.10;99.70;;;;;;4142303;28;20212;-76
2021/08/12 09:17:41;;;;;;;7.73;5.00;;;21.20;98.80;;;;;;4141779;28;20258;-76
2021/08/12 09:19:42;;;;;;;6.50;5.00;;;21.30;98.20;;;;;;4142559;28;20248;-76
2021/08/12 09:21:44;;;;;;;7.20;5.10;;;21.40;97.80;;;;;;4140409;28;20292;-76
2021/08/12 09:23:57;;;;;;;6.47;4.80;;;21.50;95.70;;;;;;4142043;28;20239;-77
2021/08/12 09:25:59;;;;;;;6.37;4.67;;;21.60;95.50;;;;;;4142708;28;20247;-81
2021/08/12 09:28:12;;;;;;;7.37;5.27;;;21.60;95.80;;;;;;4146031;28;20258;-82
2021/08/12 09:30:16;;;;;;;9.27;4.67;;;21.70;95.50;;;;;;4144463;28;20225;-80
2021/08/12 09:32:19;;;;;;;7.57;4.83;;;21.80;95.00;;;;;;4145651;28;20273;-78
2021/08/12 09:34:21;;;;;;;6.93;4.53;;;22.00;95.00;;;;;;4156309;23;20243;-74
2021/08/12 09:36:31;;;;;;;6.63;4.93;;;22.10;95.30;;;;;;4142836;28;20647;-74
2021/08/12 09:38:33;;;;;;;6.27;4.60;;;22.20;95.70;;;;;;4137753;28;20327;-75
2021/08/12 09:40:34;;;;;;;5.77;4.63;;;22.30;94.40;;;;;;4139777;28;20685;-74
2021/08/12 09:42:58;;;;;;;6.13;4.37;;;22.30;94.90;;;;;;4142907;28;20271;-75
2021/08/12 09:45:00;;;;;;;6.07;4.77;;;22.40;94.40;;;;;;4139322;28;20334;-74
2021/08/12 09:47:05;;;;;;;5.97;4.30;;;22.50;94.20;;;;;;4141564;28;20268;-76
2021/08/12 09:49:07;;;;;;;7.80;5.17;;;22.60;93.40;;;;;;4142344;28;20213;-74
2021/08/12 09:51:09;;;;;;;7.20;4.87;;;22.60;93.00;;;;;;4143491;28;20235;-74
2021/08/12 09:53:18;;;;;;;7.83;4.90;;;22.70;92.80;;;;;;4142537;28;20219;-75
2021/08/12 09:55:22;;;;;;;7.53;5.17;;;22.70;91.80;;;;;;4133726;28;20238;-74
2021/08/12 09:57:24;;;;;;;5.80;4.43;;;22.80;91.80;;;;;;4143648;28;20281;-74
2021/08/12 09:59:26;;;;;;;5.27;4.40;;;22.80;92.20;;;;;;4141444;28;20219;-74
2021/08/12 10:01:28;;;;;;;5.93;4.30;;;22.90;93.40;;;;;;4142628;28;20222;-74
2021/08/12 10:03:32;;;;;;;6.27;4.43;;;23.00;93.80;;;;;;4133031;28;20219;-74
2021/08/12 10:05:37;;;;;;;5.27;4.07;;;23.10;92.50;;;;;;4142601;28;20235;-74
2021/08/12 10:07:41;;;;;;;6.80;4.87;;;23.20;91.30;;;;;;4142449;28;20215;-75
2021/08/12 10:09:43;;;;;;;7.30;4.33;;;23.30;90.00;;;;;;4141303;28;20243;-75
2021/08/12 10:11:45;;;;;;;5.80;4.37;;;23.30;88.20;;;;;;4142487;28;20223;-75
2021/08/12 10:13:48;;;;;;;6.50;4.77;;;23.40;86.70;;;;;;4140969;28;20257;-75
2021/08/12 10:15:51;;;;;;;5.70;4.13;;;23.50;90.00;;;;;;4142957;28;20208;-75
2021/08/12 10:17:54;;;;;;;4.77;4.07;;;23.60;83.60;;;;;;4142788;28;20216;-75
2021/08/12 10:19:57;;;;;;;4.93;3.80;;;23.80;84.50;;;;;;4142252;28;20211;-75
2021/08/12 10:21:59;;;;;;;5.13;3.60;;;23.90;83.50;;;;;;4138983;28;20262;-74
2021/08/12 10:24:03;;;;;;;4.47;3.60;;;24.10;84.30;;;;;;4129598;28;20235;-75
2021/08/12 10:26:05;;;;;;;5.20;3.77;;;24.20;79.00;;;;;;4142855;28;20215;-76
2021/08/12 10:28:09;;;;;;;5.47;3.43;;;24.40;76.00;;;;;;4142738;28;20266;-75
2021/08/12 10:30:12;;;;;;;5.60;3.60;;;24.50;75.20;;;;;;4142041;28;20592;-75
2021/08/12 10:32:16;;;;;;;5.03;3.80;;;24.70;78.30;;;;;;4140963;28;20261;-75
2021/08/12 10:34:18;;;;;;;6.10;3.93;;;24.80;72.60;;;;;;4141832;28;20240;-75